sensor_id;sensor_type;location;lat;lon;timestamp;P1;durP1;ratioP1;P2;durP2;ratioP2
56949;SDS011;74437;50.080;19.924;2024-01-15T00:01:05;11.25;;;5.38;;
56949;SDS011;74437;50.080;19.924;2024-01-15T00:03:30;9.82;;;5.32;;
56949;SDS011;74437;50.080;19.924;2024-01-15T00:05:55;8.85;;;5.00;;
56949;SDS011;74437;50.080;19.924;2024-01-15T00:08:20;10.25;;;5.30;;
56949;SDS011;74437;50.080;19.924;2024-01-15T00:10:46;10.35;;;5.20;;
56949;SDS011;74437;50.080;19.924;2024-01-15T00:13:11;12.05;;;5.30;;
56949;SDS011;74437;50.080;19.924;2024-01-15T00:15:36;8.88;;;5.15;;
56949;SDS011;74437;50.080;19.924;2024-01-15T00:18:02;8.00;;;4.30;;
56949;SDS011;74437;50.080;19.924;2024-01-15T00:20:27;7.43;;;3.92;;
56949;SDS011;74437;50.080;19.924;2024-01-15T00:22:52;11.48;;;5.15;;
56949;SDS011;74437;50.080;19.924;2024-01-15T00:25:18;8.48;;;4.57;;
56949;SDS011;74437;50.080;19.924;2024-01-15T00:27:43;9.95;;;4.95;;
56949;SDS011;74437;50.080;19.924;2024-01-15T00:30:08;12.02;;;5.22;;
56949;SDS011;74437;50.080;19.924;2024-01-15T00:32:34;10.18;;;5.10;;
56949;SDS011;74437;50.080;19.924;2024-01-15T00:34:59;10.07;;;4.97;;
56949;SDS011;74437;50.080;19.924;2024-01-15T00:37:24;9.95;;;4.82;;
56949;SDS011;74437;50.080;19.924;2024-01-15T00:39:50;10.02;;;5.15;;
56949;SDS011;74437;50.080;19.924;2024-01-15T00:42:15;9.43;;;4.97;;
56949;SDS011;74437;50.080;19.924;2024-01-15T00:44:41;9.45;;;4.90;;
56949;SDS011;74437;50.080;19.924;2024-01-15T00:47:07;8.95;;;4.60;;
56949;SDS011;74437;50.080;19.924;2024-01-15T00:49:32;9.85;;;4.43;;
56949;SDS011;74437;50.080;19.924;2024-01-15T00:51:57;7.90;;;4.13;;
56949;SDS011;74437;50.080;19.924;2024-01-15T00:54:23;7.90;;;3.85;;
56949;SDS011;74437;50.080;19.924;2024-01-15T00:56:48;8.63;;;4.10;;
56949;SDS011;74437;50.080;19.924;2024-01-15T00:59:13;9.63;;;4.35;;
56949;SDS011;74437;50.080;19.924;2024-01-15T01:01:39;9.65;;;4.45;;
56949;SDS011;74437;50.080;19.924;2024-01-15T01:04:07;12.55;;;5.22;;
56949;SDS011;74437;50.080;19.924;2024-01-15T01:06:33;9.68;;;4.85;;
56949;SDS011;74437;50.080;19.924;2024-01-15T01:08:59;9.65;;;4.82;;
56949;SDS011;74437;50.080;19.924;2024-01-15T01:11:24;8.82;;;5.03;;
56949;SDS011;74437;50.080;19.924;2024-01-15T01:13:49;8.25;;;4.43;;
56949;SDS011;74437;50.080;19.924;2024-01-15T01:16:14;9.93;;;4.90;;
56949;SDS011;74437;50.080;19.924;2024-01-15T01:18:40;8.23;;;4.63;;
56949;SDS011;74437;50.080;19.924;2024-01-15T01:21:05;8.80;;;4.68;;
56949;SDS011;74437;50.080;19.924;2024-01-15T01:23:30;11.02;;;4.93;;
56949;SDS011;74437;50.080;19.924;2024-01-15T01:25:56;8.85;;;5.22;;
56949;SDS011;74437;50.080;19.924;2024-01-15T01:28:21;10.27;;;5.28;;
56949;SDS011;74437;50.080;19.924;2024-01-15T01:30:46;8.90;;;4.90;;
56949;SDS011;74437;50.080;19.924;2024-01-15T01:33:11;10.30;;;4.38;;
56949;SDS011;74437;50.080;19.924;2024-01-15T01:35:37;9.55;;;4.75;;
56949;SDS011;74437;50.080;19.924;2024-01-15T01:38:02;9.25;;;4.75;;
56949;SDS011;74437;50.080;19.924;2024-01-15T01:40:28;11.38;;;4.88;;
56949;SDS011;74437;50.080;19.924;2024-01-15T01:42:53;9.02;;;4.80;;
56949;SDS011;74437;50.080;19.924;2024-01-15T01:45:18;9.85;;;4.22;;
56949;SDS011;74437;50.080;19.924;2024-01-15T01:47:44;8.55;;;4.68;;
56949;SDS011;74437;50.080;19.924;2024-01-15T01:50:09;9.65;;;4.20;;
56949;SDS011;74437;50.080;19.924;2024-01-15T01:52:34;6.05;;;3.47;;
56949;SDS011;74437;50.080;19.924;2024-01-15T01:55:01;6.82;;;3.50;;
56949;SDS011;74437;50.080;19.924;2024-01-15T01:57:27;7.40;;;3.58;;
56949;SDS011;74437;50.080;19.924;2024-01-15T01:59:54;6.15;;;3.45;;
56949;SDS011;74437;50.080;19.924;2024-01-15T02:02:20;6.50;;;3.50;;
56949;SDS011;74437;50.080;19.924;2024-01-15T02:04:46;7.07;;;3.55;;
56949;SDS011;74437;50.080;19.924;2024-01-15T02:07:13;8.13;;;3.95;;
56949;SDS011;74437;50.080;19.924;2024-01-15T02:09:38;8.15;;;3.30;;
56949;SDS011;74437;50.080;19.924;2024-01-15T02:12:03;7.30;;;3.55;;
56949;SDS011;74437;50.080;19.924;2024-01-15T02:14:29;8.05;;;3.60;;
56949;SDS011;74437;50.080;19.924;2024-01-15T02:16:54;4.63;;;3.05;;
56949;SDS011;74437;50.080;19.924;2024-01-15T02:19:20;6.65;;;3.28;;
56949;SDS011;74437;50.080;19.924;2024-01-15T02:21:45;6.53;;;2.90;;
56949;SDS011;74437;50.080;19.924;2024-01-15T02:24:10;8.60;;;3.05;;
56949;SDS011;74437;50.080;19.924;2024-01-15T02:26:36;7.53;;;3.60;;
56949;SDS011;74437;50.080;19.924;2024-01-15T02:29:03;5.07;;;2.63;;
56949;SDS011;74437;50.080;19.924;2024-01-15T02:31:29;7.70;;;3.72;;
56949;SDS011;74437;50.080;19.924;2024-01-15T02:33:55;5.50;;;2.60;;
56949;SDS011;74437;50.080;19.924;2024-01-15T02:36:20;6.25;;;3.17;;
56949;SDS011;74437;50.080;19.924;2024-01-15T02:38:45;5.03;;;2.85;;
56949;SDS011;74437;50.080;19.924;2024-01-15T02:41:10;5.25;;;2.97;;
56949;SDS011;74437;50.080;19.924;2024-01-15T02:43:39;5.22;;;2.80;;
56949;SDS011;74437;50.080;19.924;2024-01-15T02:46:04;4.95;;;2.95;;
56949;SDS011;74437;50.080;19.924;2024-01-15T02:48:29;4.88;;;2.53;;
56949;SDS011;74437;50.080;19.924;2024-01-15T02:50:54;4.70;;;2.42;;
56949;SDS011;74437;50.080;19.924;2024-01-15T02:53:20;6.22;;;3.05;;
56949;SDS011;74437;50.080;19.924;2024-01-15T02:55:45;4.82;;;2.58;;
56949;SDS011;74437;50.080;19.924;2024-01-15T02:58:10;6.15;;;2.85;;
56949;SDS011;74437;50.080;19.924;2024-01-15T03:00:35;4.18;;;2.17;;
56949;SDS011;74437;50.080;19.924;2024-01-15T03:03:01;5.18;;;2.88;;
56949;SDS011;74437;50.080;19.924;2024-01-15T03:05:26;5.13;;;2.60;;
56949;SDS011;74437;50.080;19.924;2024-01-15T03:07:51;3.83;;;2.40;;
56949;SDS011;74437;50.080;19.924;2024-01-15T03:10:17;5.63;;;2.58;;
56949;SDS011;74437;50.080;19.924;2024-01-15T03:12:42;4.40;;;2.40;;
56949;SDS011;74437;50.080;19.924;2024-01-15T03:15:07;5.45;;;2.78;;
56949;SDS011;74437;50.080;19.924;2024-01-15T03:17:33;4.97;;;2.58;;
56949;SDS011;74437;50.080;19.924;2024-01-15T03:19:58;3.38;;;1.92;;
56949;SDS011;74437;50.080;19.924;2024-01-15T03:22:23;4.65;;;2.28;;
56949;SDS011;74437;50.080;19.924;2024-01-15T03:24:48;5.82;;;2.60;;
56949;SDS011;74437;50.080;19.924;2024-01-15T03:27:14;5.28;;;2.90;;
56949;SDS011;74437;50.080;19.924;2024-01-15T03:29:39;6.60;;;2.90;;
56949;SDS011;74437;50.080;19.924;2024-01-15T03:32:06;3.78;;;2.28;;
56949;SDS011;74437;50.080;19.924;2024-01-15T03:34:31;5.28;;;2.50;;
56949;SDS011;74437;50.080;19.924;2024-01-15T03:36:57;3.42;;;2.10;;
56949;SDS011;74437;50.080;19.924;2024-01-15T03:39:23;5.20;;;2.35;;
56949;SDS011;74437;50.080;19.924;2024-01-15T03:41:49;5.05;;;2.45;;
56949;SDS011;74437;50.080;19.924;2024-01-15T03:44:14;3.75;;;2.33;;
56949;SDS011;74437;50.080;19.924;2024-01-15T03:46:39;6.00;;;2.50;;
56949;SDS011;74437;50.080;19.924;2024-01-15T03:49:04;4.90;;;1.23;;
56949;SDS011;74437;50.080;19.924;2024-01-15T03:51:30;5.07;;;2.58;;
56949;SDS011;74437;50.080;19.924;2024-01-15T03:53:55;4.00;;;2.20;;
56949;SDS011;74437;50.080;19.924;2024-01-15T03:56:20;5.18;;;2.67;;
56949;SDS011;74437;50.080;19.924;2024-01-15T03:58:45;3.58;;;2.00;;
56949;SDS011;74437;50.080;19.924;2024-01-15T04:01:11;3.97;;;1.63;;
56949;SDS011;74437;50.080;19.924;2024-01-15T04:03:36;4.15;;;2.17;;
56949;SDS011;74437;50.080;19.924;2024-01-15T04:06:02;6.10;;;2.10;;
56949;SDS011;74437;50.080;19.924;2024-01-15T04:08:28;3.53;;;2.00;;
56949;SDS011;74437;50.080;19.924;2024-01-15T04:10:53;4.80;;;2.00;;
56949;SDS011;74437;50.080;19.924;2024-01-15T04:13:19;5.15;;;2.65;;
56949;SDS011;74437;50.080;19.924;2024-01-15T04:15:45;3.72;;;1.88;;
56949;SDS011;74437;50.080;19.924;2024-01-15T04:18:10;3.28;;;1.40;;
56949;SDS011;74437;50.080;19.924;2024-01-15T04:20:35;3.35;;;1.95;;
56949;SDS011;74437;50.080;19.924;2024-01-15T04:23:01;3.42;;;1.70;;
56949;SDS011;74437;50.080;19.924;2024-01-15T04:25:26;4.28;;;2.17;;
56949;SDS011;74437;50.080;19.924;2024-01-15T04:27:51;3.33;;;1.40;;
56949;SDS011;74437;50.080;19.924;2024-01-15T04:30:16;3.78;;;2.05;;
56949;SDS011;74437;50.080;19.924;2024-01-15T04:32:42;4.03;;;2.25;;
56949;SDS011;74437;50.080;19.924;2024-01-15T04:35:07;5.45;;;1.88;;
56949;SDS011;74437;50.080;19.924;2024-01-15T04:37:32;4.47;;;2.15;;
56949;SDS011;74437;50.080;19.924;2024-01-15T04:39:58;3.75;;;1.90;;
56949;SDS011;74437;50.080;19.924;2024-01-15T04:42:23;3.83;;;2.15;;
56949;SDS011;74437;50.080;19.924;2024-01-15T04:44:48;3.90;;;1.90;;
56949;SDS011;74437;50.080;19.924;2024-01-15T04:47:14;3.80;;;2.08;;
56949;SDS011;74437;50.080;19.924;2024-01-15T04:49:39;3.85;;;1.88;;
56949;SDS011;74437;50.080;19.924;2024-01-15T04:52:05;2.40;;;1.27;;
56949;SDS011;74437;50.080;19.924;2024-01-15T04:54:30;4.85;;;1.80;;
56949;SDS011;74437;50.080;19.924;2024-01-15T04:56:55;5.57;;;2.13;;
56949;SDS011;74437;50.080;19.924;2024-01-15T04:59:21;5.32;;;2.28;;
56949;SDS011;74437;50.080;19.924;2024-01-15T05:01:46;4.72;;;2.35;;
56949;SDS011;74437;50.080;19.924;2024-01-15T05:04:12;4.40;;;2.28;;
56949;SDS011;74437;50.080;19.924;2024-01-15T05:06:37;3.40;;;1.90;;
56949;SDS011;74437;50.080;19.924;2024-01-15T05:09:03;4.50;;;1.67;;
56949;SDS011;74437;50.080;19.924;2024-01-15T05:11:29;4.57;;;2.25;;
56949;SDS011;74437;50.080;19.924;2024-01-15T05:13:54;6.25;;;2.15;;
56949;SDS011;74437;50.080;19.924;2024-01-15T05:16:19;5.70;;;1.70;;
56949;SDS011;74437;50.080;19.924;2024-01-15T05:18:45;4.13;;;1.70;;
56949;SDS011;74437;50.080;19.924;2024-01-15T05:21:10;3.53;;;1.88;;
56949;SDS011;74437;50.080;19.924;2024-01-15T05:23:35;5.28;;;2.65;;
56949;SDS011;74437;50.080;19.924;2024-01-15T05:26:01;4.68;;;2.20;;
56949;SDS011;74437;50.080;19.924;2024-01-15T05:28:26;2.60;;;1.75;;
56949;SDS011;74437;50.080;19.924;2024-01-15T05:30:51;4.43;;;2.20;;
56949;SDS011;74437;50.080;19.924;2024-01-15T05:33:17;4.72;;;1.92;;
56949;SDS011;74437;50.080;19.924;2024-01-15T05:35:43;3.92;;;1.98;;
56949;SDS011;74437;50.080;19.924;2024-01-15T05:38:08;4.70;;;2.17;;
56949;SDS011;74437;50.080;19.924;2024-01-15T05:40:33;5.38;;;2.10;;
56949;SDS011;74437;50.080;19.924;2024-01-15T05:42:59;5.93;;;2.47;;
56949;SDS011;74437;50.080;19.924;2024-01-15T05:45:26;3.72;;;2.00;;
56949;SDS011;74437;50.080;19.924;2024-01-15T05:47:51;3.45;;;1.95;;
56949;SDS011;74437;50.080;19.924;2024-01-15T05:50:16;3.97;;;2.15;;
56949;SDS011;74437;50.080;19.924;2024-01-15T05:52:42;6.07;;;2.42;;
56949;SDS011;74437;50.080;19.924;2024-01-15T05:55:07;5.63;;;2.60;;
56949;SDS011;74437;50.080;19.924;2024-01-15T05:57:32;5.50;;;2.22;;
56949;SDS011;74437;50.080;19.924;2024-01-15T05:59:58;5.05;;;2.60;;
56949;SDS011;74437;50.080;19.924;2024-01-15T06:02:23;5.75;;;2.50;;
56949;SDS011;74437;50.080;19.924;2024-01-15T06:04:48;5.03;;;2.38;;
56949;SDS011;74437;50.080;19.924;2024-01-15T06:07:13;4.65;;;2.50;;
56949;SDS011;74437;50.080;19.924;2024-01-15T06:09:39;5.47;;;2.38;;
56949;SDS011;74437;50.080;19.924;2024-01-15T06:12:05;4.57;;;2.00;;
56949;SDS011;74437;50.080;19.924;2024-01-15T06:14:32;5.40;;;2.20;;
56949;SDS011;74437;50.080;19.924;2024-01-15T06:16:57;6.13;;;2.53;;
56949;SDS011;74437;50.080;19.924;2024-01-15T06:19:22;3.45;;;1.80;;
56949;SDS011;74437;50.080;19.924;2024-01-15T06:21:48;3.00;;;1.73;;
56949;SDS011;74437;50.080;19.924;2024-01-15T06:24:13;4.20;;;2.42;;
56949;SDS011;74437;50.080;19.924;2024-01-15T06:26:38;4.53;;;1.77;;
56949;SDS011;74437;50.080;19.924;2024-01-15T06:29:04;3.38;;;2.10;;
56949;SDS011;74437;50.080;19.924;2024-01-15T06:31:29;4.60;;;2.30;;
56949;SDS011;74437;50.080;19.924;2024-01-15T06:33:55;3.95;;;2.35;;
56949;SDS011;74437;50.080;19.924;2024-01-15T06:36:20;4.97;;;2.40;;
56949;SDS011;74437;50.080;19.924;2024-01-15T06:38:45;5.25;;;2.78;;
56949;SDS011;74437;50.080;19.924;2024-01-15T06:41:11;6.13;;;2.70;;
56949;SDS011;74437;50.080;19.924;2024-01-15T06:43:36;5.07;;;2.75;;
56949;SDS011;74437;50.080;19.924;2024-01-15T06:46:01;6.57;;;3.20;;
56949;SDS011;74437;50.080;19.924;2024-01-15T06:48:27;4.65;;;2.00;;
56949;SDS011;74437;50.080;19.924;2024-01-15T06:50:52;6.28;;;2.83;;
56949;SDS011;74437;50.080;19.924;2024-01-15T06:53:17;7.30;;;3.00;;
56949;SDS011;74437;50.080;19.924;2024-01-15T06:55:43;6.18;;;2.75;;
56949;SDS011;74437;50.080;19.924;2024-01-15T06:58:08;8.30;;;2.95;;
56949;SDS011;74437;50.080;19.924;2024-01-15T07:00:33;7.85;;;3.05;;
56949;SDS011;74437;50.080;19.924;2024-01-15T07:02:59;6.47;;;2.95;;
56949;SDS011;74437;50.080;19.924;2024-01-15T07:05:24;5.20;;;2.88;;
56949;SDS011;74437;50.080;19.924;2024-01-15T07:07:49;5.85;;;2.30;;
56949;SDS011;74437;50.080;19.924;2024-01-15T07:10:15;5.70;;;3.08;;
56949;SDS011;74437;50.080;19.924;2024-01-15T07:12:43;5.93;;;2.95;;
56949;SDS011;74437;50.080;19.924;2024-01-15T07:15:09;7.47;;;3.20;;
56949;SDS011;74437;50.080;19.924;2024-01-15T07:17:34;6.70;;;3.25;;
56949;SDS011;74437;50.080;19.924;2024-01-15T07:20:00;7.50;;;3.67;;
56949;SDS011;74437;50.080;19.924;2024-01-15T07:22:26;4.65;;;3.25;;
56949;SDS011;74437;50.080;19.924;2024-01-15T07:24:51;7.65;;;3.22;;
56949;SDS011;74437;50.080;19.924;2024-01-15T07:27:16;6.43;;;2.90;;
56949;SDS011;74437;50.080;19.924;2024-01-15T07:29:42;9.63;;;3.65;;
56949;SDS011;74437;50.080;19.924;2024-01-15T07:32:08;10.35;;;3.45;;
56949;SDS011;74437;50.080;19.924;2024-01-15T07:34:33;9.02;;;4.55;;
56949;SDS011;74437;50.080;19.924;2024-01-15T07:36:58;5.75;;;3.00;;
56949;SDS011;74437;50.080;19.924;2024-01-15T07:39:24;7.47;;;3.97;;
56949;SDS011;74437;50.080;19.924;2024-01-15T07:41:53;8.35;;;3.80;;
56949;SDS011;74437;50.080;19.924;2024-01-15T07:44:18;7.93;;;3.90;;
56949;SDS011;74437;50.080;19.924;2024-01-15T07:46:44;9.25;;;4.00;;
56949;SDS011;74437;50.080;19.924;2024-01-15T07:49:10;6.13;;;3.03;;
56949;SDS011;74437;50.080;19.924;2024-01-15T07:51:35;9.45;;;3.63;;
56949;SDS011;74437;50.080;19.924;2024-01-15T07:54:01;9.13;;;3.95;;
56949;SDS011;74437;50.080;19.924;2024-01-15T07:56:27;8.93;;;3.95;;
56949;SDS011;74437;50.080;19.924;2024-01-15T07:58:52;7.65;;;3.67;;
56949;SDS011;74437;50.080;19.924;2024-01-15T08:01:17;9.40;;;3.50;;
56949;SDS011;74437;50.080;19.924;2024-01-15T08:03:43;9.20;;;4.45;;
56949;SDS011;74437;50.080;19.924;2024-01-15T08:06:08;6.97;;;3.85;;
56949;SDS011;74437;50.080;19.924;2024-01-15T08:08:34;8.02;;;4.10;;
56949;SDS011;74437;50.080;19.924;2024-01-15T08:11:00;10.00;;;4.63;;
56949;SDS011;74437;50.080;19.924;2024-01-15T08:13:26;12.43;;;4.47;;
56949;SDS011;74437;50.080;19.924;2024-01-15T08:15:52;8.68;;;4.22;;
56949;SDS011;74437;50.080;19.924;2024-01-15T08:18:17;6.72;;;4.00;;
56949;SDS011;74437;50.080;19.924;2024-01-15T08:20:42;10.77;;;4.40;;
56949;SDS011;74437;50.080;19.924;2024-01-15T08:23:07;6.78;;;3.65;;
56949;SDS011;74437;50.080;19.924;2024-01-15T08:25:33;8.77;;;3.90;;
56949;SDS011;74437;50.080;19.924;2024-01-15T08:27:58;8.90;;;4.30;;
56949;SDS011;74437;50.080;19.924;2024-01-15T08:30:24;9.55;;;4.70;;
56949;SDS011;74437;50.080;19.924;2024-01-15T08:32:52;8.50;;;3.70;;
56949;SDS011;74437;50.080;19.924;2024-01-15T08:35:21;8.55;;;4.25;;
56949;SDS011;74437;50.080;19.924;2024-01-15T08:37:50;12.45;;;5.13;;
56949;SDS011;74437;50.080;19.924;2024-01-15T08:40:16;10.27;;;5.00;;
56949;SDS011;74437;50.080;19.924;2024-01-15T08:42:41;9.48;;;4.80;;
56949;SDS011;74437;50.080;19.924;2024-01-15T08:45:08;11.27;;;4.65;;
56949;SDS011;74437;50.080;19.924;2024-01-15T08:47:34;9.50;;;4.78;;
56949;SDS011;74437;50.080;19.924;2024-01-15T08:49:59;9.75;;;4.38;;
56949;SDS011;74437;50.080;19.924;2024-01-15T08:52:25;9.80;;;4.32;;
56949;SDS011;74437;50.080;19.924;2024-01-15T08:54:50;6.78;;;3.25;;
56949;SDS011;74437;50.080;19.924;2024-01-15T08:57:15;7.78;;;3.65;;
56949;SDS011;74437;50.080;19.924;2024-01-15T08:59:41;9.43;;;4.43;;
56949;SDS011;74437;50.080;19.924;2024-01-15T09:02:06;6.78;;;3.63;;
56949;SDS011;74437;50.080;19.924;2024-01-15T09:04:32;7.68;;;3.85;;
56949;SDS011;74437;50.080;19.924;2024-01-15T09:06:58;11.90;;;4.30;;
56949;SDS011;74437;50.080;19.924;2024-01-15T09:09:23;6.38;;;3.40;;
56949;SDS011;74437;50.080;19.924;2024-01-15T09:11:49;8.52;;;3.83;;
56949;SDS011;74437;50.080;19.924;2024-01-15T09:14:15;6.82;;;3.83;;
56949;SDS011;74437;50.080;19.924;2024-01-15T09:16:40;7.88;;;3.92;;
56949;SDS011;74437;50.080;19.924;2024-01-15T09:19:05;9.73;;;4.30;;
56949;SDS011;74437;50.080;19.924;2024-01-15T09:21:31;10.32;;;4.63;;
56949;SDS011;74437;50.080;19.924;2024-01-15T09:23:56;10.05;;;5.28;;
56949;SDS011;74437;50.080;19.924;2024-01-15T09:26:21;7.88;;;4.13;;
56949;SDS011;74437;50.080;19.924;2024-01-15T09:28:46;8.52;;;4.78;;
56949;SDS011;74437;50.080;19.924;2024-01-15T09:31:12;10.50;;;5.03;;
56949;SDS011;74437;50.080;19.924;2024-01-15T09:33:37;11.32;;;4.70;;
56949;SDS011;74437;50.080;19.924;2024-01-15T09:36:03;9.52;;;5.05;;
56949;SDS011;74437;50.080;19.924;2024-01-15T09:38:29;9.73;;;4.97;;
56949;SDS011;74437;50.080;19.924;2024-01-15T09:40:56;11.53;;;5.17;;
56949;SDS011;74437;50.080;19.924;2024-01-15T09:43:22;12.80;;;6.05;;
56949;SDS011;74437;50.080;19.924;2024-01-15T09:45:47;11.40;;;5.00;;
56949;SDS011;74437;50.080;19.924;2024-01-15T09:48:14;10.30;;;5.20;;
56949;SDS011;74437;50.080;19.924;2024-01-15T09:50:40;12.55;;;5.30;;
56949;SDS011;74437;50.080;19.924;2024-01-15T09:53:05;10.90;;;5.70;;
56949;SDS011;74437;50.080;19.924;2024-01-15T09:55:30;15.32;;;6.38;;
56949;SDS011;74437;50.080;19.924;2024-01-15T09:57:57;9.27;;;5.22;;
56949;SDS011;74437;50.080;19.924;2024-01-15T10:00:27;11.15;;;4.80;;
56949;SDS011;74437;50.080;19.924;2024-01-15T10:02:53;14.13;;;6.32;;
56949;SDS011;74437;50.080;19.924;2024-01-15T10:05:18;12.00;;;5.93;;
56949;SDS011;74437;50.080;19.924;2024-01-15T10:07:43;13.57;;;6.03;;
56949;SDS011;74437;50.080;19.924;2024-01-15T10:10:12;11.07;;;5.60;;
56949;SDS011;74437;50.080;19.924;2024-01-15T10:12:37;17.65;;;7.20;;
56949;SDS011;74437;50.080;19.924;2024-01-15T10:15:04;14.57;;;6.93;;
56949;SDS011;74437;50.080;19.924;2024-01-15T10:17:30;14.07;;;6.05;;
56949;SDS011;74437;50.080;19.924;2024-01-15T10:19:56;13.25;;;6.53;;
56949;SDS011;74437;50.080;19.924;2024-01-15T10:22:22;12.13;;;5.93;;
56949;SDS011;74437;50.080;19.924;2024-01-15T10:24:48;14.35;;;6.72;;
56949;SDS011;74437;50.080;19.924;2024-01-15T10:27:13;12.77;;;5.90;;
56949;SDS011;74437;50.080;19.924;2024-01-15T10:29:40;14.18;;;6.63;;
56949;SDS011;74437;50.080;19.924;2024-01-15T10:32:07;20.52;;;7.28;;
56949;SDS011;74437;50.080;19.924;2024-01-15T10:34:33;17.55;;;7.75;;
56949;SDS011;74437;50.080;19.924;2024-01-15T10:37:03;12.27;;;5.68;;
56949;SDS011;74437;50.080;19.924;2024-01-15T10:39:29;12.18;;;5.40;;
56949;SDS011;74437;50.080;19.924;2024-01-15T10:41:55;18.42;;;8.30;;
56949;SDS011;74437;50.080;19.924;2024-01-15T10:44:20;17.10;;;7.63;;
56949;SDS011;74437;50.080;19.924;2024-01-15T10:46:45;13.68;;;6.57;;
56949;SDS011;74437;50.080;19.924;2024-01-15T10:49:12;14.13;;;6.93;;
56949;SDS011;74437;50.080;19.924;2024-01-15T10:51:37;16.30;;;7.32;;
56949;SDS011;74437;50.080;19.924;2024-01-15T10:54:04;14.45;;;6.53;;
56949;SDS011;74437;50.080;19.924;2024-01-15T10:56:30;15.20;;;7.53;;
56949;SDS011;74437;50.080;19.924;2024-01-15T10:58:58;19.00;;;8.60;;
56949;SDS011;74437;50.080;19.924;2024-01-15T11:01:24;13.35;;;6.35;;
56949;SDS011;74437;50.080;19.924;2024-01-15T11:03:50;15.40;;;6.82;;
56949;SDS011;74437;50.080;19.924;2024-01-15T11:06:18;13.35;;;7.25;;
56949;SDS011;74437;50.080;19.924;2024-01-15T11:08:50;11.57;;;5.15;;
56949;SDS011;74437;50.080;19.924;2024-01-15T11:11:17;14.95;;;6.20;;
56949;SDS011;74437;50.080;19.924;2024-01-15T11:13:43;16.98;;;6.65;;
56949;SDS011;74437;50.080;19.924;2024-01-15T11:16:13;17.45;;;6.82;;
56949;SDS011;74437;50.080;19.924;2024-01-15T11:18:40;14.00;;;6.65;;
56949;SDS011;74437;50.080;19.924;2024-01-15T11:21:26;11.43;;;5.95;;
56949;SDS011;74437;50.080;19.924;2024-01-15T11:34:05;13.52;;;6.28;;
56949;SDS011;74437;50.080;19.924;2024-01-15T11:41:52;12.63;;;6.68;;
56949;SDS011;74437;50.080;19.924;2024-01-15T11:46:57;16.00;;;7.25;;
56949;SDS011;74437;50.080;19.924;2024-01-15T11:52:01;14.15;;;6.53;;
56949;SDS011;74437;50.080;19.924;2024-01-15T11:54:27;14.00;;;5.85;;
56949;SDS011;74437;50.080;19.924;2024-01-15T11:56:59;12.30;;;5.80;;
56949;SDS011;74437;50.080;19.924;2024-01-15T11:59:28;13.57;;;6.90;;
56949;SDS011;74437;50.080;19.924;2024-01-15T12:01:54;14.05;;;6.93;;
56949;SDS011;74437;50.080;19.924;2024-01-15T12:04:20;14.05;;;6.40;;
56949;SDS011;74437;50.080;19.924;2024-01-15T12:06:46;13.15;;;6.25;;
56949;SDS011;74437;50.080;19.924;2024-01-15T12:09:11;15.80;;;7.07;;
56949;SDS011;74437;50.080;19.924;2024-01-15T12:11:36;16.70;;;7.75;;
56949;SDS011;74437;50.080;19.924;2024-01-15T12:14:07;13.60;;;6.80;;
56949;SDS011;74437;50.080;19.924;2024-01-15T12:16:33;14.80;;;6.43;;
56949;SDS011;74437;50.080;19.924;2024-01-15T12:18:59;13.20;;;6.45;;
56949;SDS011;74437;50.080;19.924;2024-01-15T12:21:26;11.60;;;5.53;;
56949;SDS011;74437;50.080;19.924;2024-01-15T12:23:51;12.95;;;6.30;;
56949;SDS011;74437;50.080;19.924;2024-01-15T12:26:17;14.02;;;6.43;;
56949;SDS011;74437;50.080;19.924;2024-01-15T12:28:43;12.77;;;5.78;;
56949;SDS011;74437;50.080;19.924;2024-01-15T12:31:08;14.05;;;6.60;;
56949;SDS011;74437;50.080;19.924;2024-01-15T12:33:33;11.50;;;5.22;;
56949;SDS011;74437;50.080;19.924;2024-01-15T12:35:59;14.05;;;6.45;;
56949;SDS011;74437;50.080;19.924;2024-01-15T12:38:24;18.20;;;6.40;;
56949;SDS011;74437;50.080;19.924;2024-01-15T12:40:50;12.77;;;6.32;;
56949;SDS011;74437;50.080;19.924;2024-01-15T12:43:16;12.57;;;6.43;;
56949;SDS011;74437;50.080;19.924;2024-01-15T12:45:42;14.20;;;7.03;;
56949;SDS011;74437;50.080;19.924;2024-01-15T12:48:08;13.77;;;6.68;;
56949;SDS011;74437;50.080;19.924;2024-01-15T12:50:34;16.58;;;7.07;;
56949;SDS011;74437;50.080;19.924;2024-01-15T12:53:00;14.27;;;7.50;;
56949;SDS011;74437;50.080;19.924;2024-01-15T12:55:26;12.32;;;6.32;;
56949;SDS011;74437;50.080;19.924;2024-01-15T12:57:51;17.65;;;7.18;;
56949;SDS011;74437;50.080;19.924;2024-01-15T13:00:20;11.93;;;5.33;;
56949;SDS011;74437;50.080;19.924;2024-01-15T13:02:45;15.27;;;6.93;;
56949;SDS011;74437;50.080;19.924;2024-01-15T13:05:11;12.10;;;6.20;;
56949;SDS011;74437;50.080;19.924;2024-01-15T13:07:37;15.02;;;6.40;;
56949;SDS011;74437;50.080;19.924;2024-01-15T13:10:03;11.93;;;5.78;;
56949;SDS011;74437;50.080;19.924;2024-01-15T13:12:28;14.80;;;6.40;;
56949;SDS011;74437;50.080;19.924;2024-01-15T13:14:54;12.88;;;6.13;;
56949;SDS011;74437;50.080;19.924;2024-01-15T13:17:19;13.95;;;6.78;;
56949;SDS011;74437;50.080;19.924;2024-01-15T13:19:46;13.40;;;6.90;;
56949;SDS011;74437;50.080;19.924;2024-01-15T13:22:11;14.75;;;6.72;;
56949;SDS011;74437;50.080;19.924;2024-01-15T13:24:39;14.00;;;6.65;;
56949;SDS011;74437;50.080;19.924;2024-01-15T13:27:04;9.85;;;4.47;;
56949;SDS011;74437;50.080;19.924;2024-01-15T13:29:30;10.15;;;5.22;;
56949;SDS011;74437;50.080;19.924;2024-01-15T13:31:56;10.98;;;5.45;;
56949;SDS011;74437;50.080;19.924;2024-01-15T13:34:23;16.07;;;6.80;;
56949;SDS011;74437;50.080;19.924;2024-01-15T13:36:49;14.18;;;6.43;;
56949;SDS011;74437;50.080;19.924;2024-01-15T13:39:18;14.55;;;5.97;;
56949;SDS011;74437;50.080;19.924;2024-01-15T13:41:46;17.95;;;7.10;;
56949;SDS011;74437;50.080;19.924;2024-01-15T13:44:11;12.55;;;6.45;;
56949;SDS011;74437;50.080;19.924;2024-01-15T13:46:37;14.52;;;6.78;;
56949;SDS011;74437;50.080;19.924;2024-01-15T13:49:03;13.27;;;6.63;;
56949;SDS011;74437;50.080;19.924;2024-01-15T13:51:30;16.77;;;7.13;;
56949;SDS011;74437;50.080;19.924;2024-01-15T13:53:56;13.05;;;6.57;;
56949;SDS011;74437;50.080;19.924;2024-01-15T13:56:21;16.13;;;6.65;;
56949;SDS011;74437;50.080;19.924;2024-01-15T13:58:47;14.90;;;7.20;;
56949;SDS011;74437;50.080;19.924;2024-01-15T14:01:13;13.25;;;6.90;;
56949;SDS011;74437;50.080;19.924;2024-01-15T14:03:38;14.77;;;6.60;;
56949;SDS011;74437;50.080;19.924;2024-01-15T14:06:03;16.85;;;7.07;;
56949;SDS011;74437;50.080;19.924;2024-01-15T14:08:33;14.85;;;7.15;;
56949;SDS011;74437;50.080;19.924;2024-01-15T14:10:59;14.23;;;6.40;;
56949;SDS011;74437;50.080;19.924;2024-01-15T14:13:24;15.27;;;6.50;;
56949;SDS011;74437;50.080;19.924;2024-01-15T14:15:49;11.65;;;6.18;;
56949;SDS011;74437;50.080;19.924;2024-01-15T14:18:15;13.63;;;7.13;;
56949;SDS011;74437;50.080;19.924;2024-01-15T14:20:41;9.15;;;4.78;;
56949;SDS011;74437;50.080;19.924;2024-01-15T14:23:07;12.50;;;5.53;;
56949;SDS011;74437;50.080;19.924;2024-01-15T14:25:32;13.15;;;5.60;;
56949;SDS011;74437;50.080;19.924;2024-01-15T14:27:58;12.10;;;6.32;;
56949;SDS011;74437;50.080;19.924;2024-01-15T14:30:23;15.57;;;6.85;;
56949;SDS011;74437;50.080;19.924;2024-01-15T14:32:49;16.00;;;6.75;;
56949;SDS011;74437;50.080;19.924;2024-01-15T14:35:14;13.18;;;6.25;;
56949;SDS011;74437;50.080;19.924;2024-01-15T14:37:39;15.77;;;6.82;;
56949;SDS011;74437;50.080;19.924;2024-01-15T14:40:08;14.95;;;6.43;;